sensor_id;sensor_type;location;lat;lon;timestamp;P1;durP1;ratioP1;P2;durP2;ratioP2
36745;SDS011;22715;52.182;21.206;2023-05-07T00:02:10;4.47;;;2.75;;
36745;SDS011;22715;52.182;21.206;2023-05-07T00:04:36;6.15;;;2.53;;
36745;SDS011;22715;52.182;21.206;2023-05-07T00:07:02;4.00;;;2.70;;
36745;SDS011;22715;52.182;21.206;2023-05-07T00:09:28;4.22;;;2.85;;
36745;SDS011;22715;52.182;21.206;2023-05-07T00:11:55;4.57;;;2.90;;
36745;SDS011;22715;52.182;21.206;2023-05-07T00:14:20;4.03;;;2.65;;
36745;SDS011;22715;52.182;21.206;2023-05-07T00:16:46;5.00;;;2.58;;
36745;SDS011;22715;52.182;21.206;2023-05-07T00:19:11;3.22;;;2.45;;
36745;SDS011;22715;52.182;21.206;2023-05-07T00:21:48;2.80;;;2.17;;
36745;SDS011;22715;52.182;21.206;2023-05-07T00:24:13;3.67;;;2.38;;
36745;SDS011;22715;52.182;21.206;2023-05-07T00:26:46;3.92;;;2.22;;
36745;SDS011;22715;52.182;21.206;2023-05-07T00:31:46;3.30;;;2.17;;
36745;SDS011;22715;52.182;21.206;2023-05-07T00:34:11;3.45;;;2.70;;
36745;SDS011;22715;52.182;21.206;2023-05-07T00:36:37;5.50;;;2.20;;
36745;SDS011;22715;52.182;21.206;2023-05-07T00:39:02;6.97;;;2.90;;
36745;SDS011;22715;52.182;21.206;2023-05-07T00:41:30;3.70;;;2.90;;
36745;SDS011;22715;52.182;21.206;2023-05-07T00:44:01;6.10;;;2.85;;
36745;SDS011;22715;52.182;21.206;2023-05-07T00:49:04;5.43;;;2.42;;
36745;SDS011;22715;52.182;21.206;2023-05-07T00:51:30;7.22;;;2.35;;
36745;SDS011;22715;52.182;21.206;2023-05-07T00:53:56;8.27;;;2.97;;
36745;SDS011;22715;52.182;21.206;2023-05-07T00:56:21;5.70;;;2.85;;
36745;SDS011;22715;52.182;21.206;2023-05-07T00:58:47;4.63;;;2.65;;
36745;SDS011;22715;52.182;21.206;2023-05-07T01:01:12;3.90;;;2.50;;
36745;SDS011;22715;52.182;21.206;2023-05-07T01:06:13;3.40;;;2.17;;
36745;SDS011;22715;52.182;21.206;2023-05-07T01:08:41;3.95;;;2.30;;
36745;SDS011;22715;52.182;21.206;2023-05-07T01:11:07;2.60;;;1.92;;
36745;SDS011;22715;52.182;21.206;2023-05-07T01:13:36;4.32;;;2.38;;
36745;SDS011;22715;52.182;21.206;2023-05-07T01:16:02;3.28;;;2.30;;
36745;SDS011;22715;52.182;21.206;2023-05-07T01:18:28;3.08;;;2.55;;
36745;SDS011;22715;52.182;21.206;2023-05-07T01:20:55;4.47;;;2.35;;
36745;SDS011;22715;52.182;21.206;2023-05-07T01:23:21;5.30;;;1.95;;
36745;SDS011;22715;52.182;21.206;2023-05-07T01:25:51;4.82;;;2.83;;
36745;SDS011;22715;52.182;21.206;2023-05-07T01:28:16;4.22;;;2.30;;
36745;SDS011;22715;52.182;21.206;2023-05-07T01:30:41;3.17;;;2.35;;
36745;SDS011;22715;52.182;21.206;2023-05-07T01:33:09;4.50;;;3.08;;
36745;SDS011;22715;52.182;21.206;2023-05-07T01:35:37;4.82;;;2.95;;
36745;SDS011;22715;52.182;21.206;2023-05-07T01:38:03;5.57;;;3.17;;
36745;SDS011;22715;52.182;21.206;2023-05-07T01:40:31;5.28;;;2.90;;
36745;SDS011;22715;52.182;21.206;2023-05-07T01:42:56;5.80;;;2.92;;
36745;SDS011;22715;52.182;21.206;2023-05-07T01:45:21;3.75;;;2.45;;
36745;SDS011;22715;52.182;21.206;2023-05-07T01:47:47;3.60;;;2.42;;
36745;SDS011;22715;52.182;21.206;2023-05-07T01:50:13;3.47;;;2.25;;
36745;SDS011;22715;52.182;21.206;2023-05-07T01:52:40;3.50;;;2.30;;
36745;SDS011;22715;52.182;21.206;2023-05-07T01:55:06;3.92;;;2.47;;
36745;SDS011;22715;52.182;21.206;2023-05-07T01:57:31;5.55;;;3.65;;
36745;SDS011;22715;52.182;21.206;2023-05-07T01:59:56;2.83;;;2.20;;
36745;SDS011;22715;52.182;21.206;2023-05-07T02:02:22;3.60;;;2.10;;
36745;SDS011;22715;52.182;21.206;2023-05-07T02:04:47;3.13;;;2.35;;
36745;SDS011;22715;52.182;21.206;2023-05-07T02:07:12;2.85;;;2.28;;
36745;SDS011;22715;52.182;21.206;2023-05-07T02:09:38;2.42;;;2.08;;
36745;SDS011;22715;52.182;21.206;2023-05-07T02:12:09;4.47;;;2.55;;
36745;SDS011;22715;52.182;21.206;2023-05-07T02:14:38;5.20;;;1.92;;
36745;SDS011;22715;52.182;21.206;2023-05-07T02:17:07;2.33;;;1.63;;
36745;SDS011;22715;52.182;21.206;2023-05-07T02:19:32;3.60;;;2.28;;
36745;SDS011;22715;52.182;21.206;2023-05-07T02:21:58;4.65;;;2.35;;
36745;SDS011;22715;52.182;21.206;2023-05-07T02:24:23;4.00;;;2.45;;
36745;SDS011;22715;52.182;21.206;2023-05-07T02:26:49;2.40;;;1.70;;
36745;SDS011;22715;52.182;21.206;2023-05-07T02:29:17;6.15;;;2.72;;
36745;SDS011;22715;52.182;21.206;2023-05-07T02:31:42;3.83;;;2.60;;
36745;SDS011;22715;52.182;21.206;2023-05-07T02:34:07;3.67;;;2.97;;
36745;SDS011;22715;52.182;21.206;2023-05-07T02:36:32;2.58;;;1.67;;
36745;SDS011;22715;52.182;21.206;2023-05-07T02:38:58;3.42;;;2.28;;
36745;SDS011;22715;52.182;21.206;2023-05-07T02:41:23;3.75;;;2.15;;
36745;SDS011;22715;52.182;21.206;2023-05-07T02:43:48;4.75;;;2.58;;
36745;SDS011;22715;52.182;21.206;2023-05-07T02:46:14;1.90;;;1.80;;
36745;SDS011;22715;52.182;21.206;2023-05-07T02:48:40;3.80;;;2.58;;
36745;SDS011;22715;52.182;21.206;2023-05-07T02:51:08;3.20;;;2.38;;
36745;SDS011;22715;52.182;21.206;2023-05-07T02:53:39;3.20;;;2.17;;
36745;SDS011;22715;52.182;21.206;2023-05-07T02:56:04;2.63;;;2.00;;
36745;SDS011;22715;52.182;21.206;2023-05-07T02:58:31;2.40;;;2.05;;
36745;SDS011;22715;52.182;21.206;2023-05-07T03:00:56;2.90;;;1.98;;
36745;SDS011;22715;52.182;21.206;2023-05-07T03:03:22;2.28;;;2.08;;
36745;SDS011;22715;52.182;21.206;2023-05-07T03:05:47;5.50;;;2.13;;
36745;SDS011;22715;52.182;21.206;2023-05-07T03:08:13;3.03;;;1.92;;
36745;SDS011;22715;52.182;21.206;2023-05-07T03:10:38;4.07;;;2.38;;
36745;SDS011;22715;52.182;21.206;2023-05-07T03:15:38;2.22;;;1.80;;
36745;SDS011;22715;52.182;21.206;2023-05-07T03:18:04;3.70;;;2.95;;
36745;SDS011;22715;52.182;21.206;2023-05-07T03:20:29;3.17;;;2.08;;
36745;SDS011;22715;52.182;21.206;2023-05-07T03:22:55;4.03;;;1.77;;
36745;SDS011;22715;52.182;21.206;2023-05-07T03:25:20;2.53;;;2.00;;
36745;SDS011;22715;52.182;21.206;2023-05-07T03:27:46;2.50;;;1.80;;
36745;SDS011;22715;52.182;21.206;2023-05-07T03:30:12;4.28;;;2.65;;
36745;SDS011;22715;52.182;21.206;2023-05-07T03:32:37;7.53;;;2.78;;
36745;SDS011;22715;52.182;21.206;2023-05-07T03:35:03;2.38;;;1.85;;
36745;SDS011;22715;52.182;21.206;2023-05-07T03:37:28;4.15;;;2.25;;
36745;SDS011;22715;52.182;21.206;2023-05-07T03:42:29;1.90;;;1.33;;
36745;SDS011;22715;52.182;21.206;2023-05-07T03:44:55;2.25;;;1.67;;
36745;SDS011;22715;52.182;21.206;2023-05-07T03:49:55;2.88;;;1.73;;
36745;SDS011;22715;52.182;21.206;2023-05-07T03:54:58;2.03;;;1.67;;
36745;SDS011;22715;52.182;21.206;2023-05-07T04:02:37;3.60;;;1.77;;
36745;SDS011;22715;52.182;21.206;2023-05-07T04:05:02;2.55;;;1.92;;
36745;SDS011;22715;52.182;21.206;2023-05-07T04:07:29;3.05;;;2.10;;
36745;SDS011;22715;52.182;21.206;2023-05-07T04:09:55;4.55;;;2.20;;
36745;SDS011;22715;52.182;21.206;2023-05-07T04:14:55;2.53;;;2.33;;
36745;SDS011;22715;52.182;21.206;2023-05-07T04:19:56;2.28;;;1.75;;
36745;SDS011;22715;52.182;21.206;2023-05-07T04:22:22;3.20;;;1.77;;
36745;SDS011;22715;52.182;21.206;2023-05-07T04:24:48;3.95;;;1.77;;
36745;SDS011;22715;52.182;21.206;2023-05-07T04:27:13;2.65;;;1.67;;
36745;SDS011;22715;52.182;21.206;2023-05-07T04:29:39;2.65;;;1.73;;
36745;SDS011;22715;52.182;21.206;2023-05-07T04:32:10;3.83;;;2.00;;
36745;SDS011;22715;52.182;21.206;2023-05-07T04:34:43;2.58;;;1.95;;
36745;SDS011;22715;52.182;21.206;2023-05-07T04:37:09;2.60;;;1.70;;
36745;SDS011;22715;52.182;21.206;2023-05-07T04:39:35;1.90;;;1.55;;
36745;SDS011;22715;52.182;21.206;2023-05-07T04:42:06;2.13;;;1.55;;
36745;SDS011;22715;52.182;21.206;2023-05-07T04:44:34;1.75;;;1.60;;
36745;SDS011;22715;52.182;21.206;2023-05-07T04:47:02;2.35;;;1.40;;
36745;SDS011;22715;52.182;21.206;2023-05-07T04:49:27;1.60;;;1.50;;
36745;SDS011;22715;52.182;21.206;2023-05-07T04:57:03;2.85;;;1.73;;
36745;SDS011;22715;52.182;21.206;2023-05-07T04:59:28;4.18;;;1.95;;
36745;SDS011;22715;52.182;21.206;2023-05-07T05:04:29;1.77;;;1.17;;
36745;SDS011;22715;52.182;21.206;2023-05-07T05:06:55;4.25;;;2.92;;
36745;SDS011;22715;52.182;21.206;2023-05-07T05:09:20;1.92;;;1.35;;
36745;SDS011;22715;52.182;21.206;2023-05-07T05:11:46;3.25;;;1.98;;
36745;SDS011;22715;52.182;21.206;2023-05-07T05:14:11;3.35;;;1.67;;
36745;SDS011;22715;52.182;21.206;2023-05-07T05:16:36;2.47;;;1.67;;
36745;SDS011;22715;52.182;21.206;2023-05-07T05:19:02;3.40;;;1.45;;
36745;SDS011;22715;52.182;21.206;2023-05-07T05:21:28;3.22;;;1.92;;
36745;SDS011;22715;52.182;21.206;2023-05-07T05:23:54;1.65;;;1.27;;
36745;SDS011;22715;52.182;21.206;2023-05-07T05:29:00;4.75;;;1.65;;
36745;SDS011;22715;52.182;21.206;2023-05-07T05:31:26;3.08;;;2.00;;
36745;SDS011;22715;52.182;21.206;2023-05-07T05:33:51;2.65;;;1.17;;
36745;SDS011;22715;52.182;21.206;2023-05-07T05:36:23;1.35;;;0.95;;
36745;SDS011;22715;52.182;21.206;2023-05-07T05:38:48;1.73;;;1.27;;
36745;SDS011;22715;52.182;21.206;2023-05-07T05:41:14;2.55;;;1.92;;
36745;SDS011;22715;52.182;21.206;2023-05-07T05:46:15;1.45;;;1.23;;
36745;SDS011;22715;52.182;21.206;2023-05-07T05:48:43;2.35;;;1.25;;
36745;SDS011;22715;52.182;21.206;2023-05-07T05:51:15;2.10;;;1.02;;
36745;SDS011;22715;52.182;21.206;2023-05-07T05:53:40;2.83;;;1.98;;
36745;SDS011;22715;52.182;21.206;2023-05-07T05:56:11;2.10;;;1.77;;
36745;SDS011;22715;52.182;21.206;2023-05-07T05:58:37;3.03;;;1.40;;
36745;SDS011;22715;52.182;21.206;2023-05-07T06:01:08;1.42;;;1.33;;
36745;SDS011;22715;52.182;21.206;2023-05-07T06:03:34;3.42;;;1.58;;
36745;SDS011;22715;52.182;21.206;2023-05-07T06:06:05;2.80;;;1.35;;
36745;SDS011;22715;52.182;21.206;2023-05-07T06:13:35;2.17;;;1.10;;
36745;SDS011;22715;52.182;21.206;2023-05-07T06:16:01;2.22;;;1.42;;
36745;SDS011;22715;52.182;21.206;2023-05-07T06:18:34;1.83;;;1.23;;
36745;SDS011;22715;52.182;21.206;2023-05-07T06:21:11;1.83;;;1.27;;
36745;SDS011;22715;52.182;21.206;2023-05-07T06:23:38;3.13;;;1.45;;
36745;SDS011;22715;52.182;21.206;2023-05-07T06:26:05;1.52;;;1.15;;
36745;SDS011;22715;52.182;21.206;2023-05-07T06:28:31;1.75;;;1.17;;
36745;SDS011;22715;52.182;21.206;2023-05-07T06:31:17;1.60;;;1.10;;
36745;SDS011;22715;52.182;21.206;2023-05-07T06:33:43;2.38;;;1.40;;
36745;SDS011;22715;52.182;21.206;2023-05-07T06:36:09;2.25;;;1.75;;
36745;SDS011;22715;52.182;21.206;2023-05-07T06:38:34;2.00;;;1.58;;
36745;SDS011;22715;52.182;21.206;2023-05-07T06:40:59;5.10;;;2.03;;
36745;SDS011;22715;52.182;21.206;2023-05-07T06:43:24;4.55;;;1.33;;
36745;SDS011;22715;52.182;21.206;2023-05-07T06:45:51;2.42;;;2.05;;
36745;SDS011;22715;52.182;21.206;2023-05-07T06:48:21;2.92;;;1.63;;
36745;SDS011;22715;52.182;21.206;2023-05-07T06:50:46;1.50;;;1.40;;
36745;SDS011;22715;52.182;21.206;2023-05-07T06:53:12;2.60;;;1.27;;
36745;SDS011;22715;52.182;21.206;2023-05-07T06:55:38;3.03;;;1.67;;
36745;SDS011;22715;52.182;21.206;2023-05-07T06:58:04;1.52;;;1.25;;
36745;SDS011;22715;52.182;21.206;2023-05-07T07:00:29;1.50;;;1.40;;
36745;SDS011;22715;52.182;21.206;2023-05-07T07:02:56;1.33;;;1.23;;
36745;SDS011;22715;52.182;21.206;2023-05-07T07:05:21;2.97;;;1.25;;
36745;SDS011;22715;52.182;21.206;2023-05-07T07:07:46;2.95;;;1.10;;
36745;SDS011;22715;52.182;21.206;2023-05-07T07:10:19;2.50;;;1.20;;
36745;SDS011;22715;52.182;21.206;2023-05-07T07:12:45;1.23;;;1.00;;
36745;SDS011;22715;52.182;21.206;2023-05-07T07:15:13;2.90;;;1.70;;
36745;SDS011;22715;52.182;21.206;2023-05-07T07:17:38;3.10;;;1.65;;
36745;SDS011;22715;52.182;21.206;2023-05-07T07:20:04;5.45;;;1.92;;
36745;SDS011;22715;52.182;21.206;2023-05-07T07:22:30;1.50;;;1.00;;
36745;SDS011;22715;52.182;21.206;2023-05-07T07:24:55;2.25;;;1.65;;
36745;SDS011;22715;52.182;21.206;2023-05-07T07:27:22;2.15;;;1.10;;
36745;SDS011;22715;52.182;21.206;2023-05-07T07:29:52;3.33;;;1.23;;
36745;SDS011;22715;52.182;21.206;2023-05-07T07:32:19;1.25;;;0.90;;
36745;SDS011;22715;52.182;21.206;2023-05-07T07:34:44;1.35;;;1.25;;
36745;SDS011;22715;52.182;21.206;2023-05-07T07:37:12;3.55;;;1.73;;
36745;SDS011;22715;52.182;21.206;2023-05-07T07:39:38;1.27;;;1.15;;
36745;SDS011;22715;52.182;21.206;2023-05-07T07:42:03;3.03;;;1.17;;
36745;SDS011;22715;52.182;21.206;2023-05-07T07:44:28;3.83;;;2.08;;
36745;SDS011;22715;52.182;21.206;2023-05-07T07:46:57;4.38;;;1.77;;
36745;SDS011;22715;52.182;21.206;2023-05-07T07:49:22;4.88;;;2.05;;
36745;SDS011;22715;52.182;21.206;2023-05-07T07:51:48;1.42;;;0.98;;
36745;SDS011;22715;52.182;21.206;2023-05-07T07:54:14;2.47;;;1.40;;
36745;SDS011;22715;52.182;21.206;2023-05-07T07:56:40;3.05;;;1.83;;
36745;SDS011;22715;52.182;21.206;2023-05-07T07:59:05;2.33;;;1.67;;
36745;SDS011;22715;52.182;21.206;2023-05-07T08:01:36;1.40;;;1.23;;
36745;SDS011;22715;52.182;21.206;2023-05-07T08:04:01;3.20;;;1.92;;
36745;SDS011;22715;52.182;21.206;2023-05-07T08:06:28;1.73;;;1.40;;
36745;SDS011;22715;52.182;21.206;2023-05-07T08:11:45;2.10;;;1.23;;
36745;SDS011;22715;52.182;21.206;2023-05-07T08:14:11;1.80;;;1.65;;
36745;SDS011;22715;52.182;21.206;2023-05-07T08:16:36;1.88;;;1.27;;
36745;SDS011;22715;52.182;21.206;2023-05-07T08:19:01;3.30;;;1.13;;
36745;SDS011;22715;52.182;21.206;2023-05-07T08:21:26;1.52;;;1.20;;
36745;SDS011;22715;52.182;21.206;2023-05-07T08:23:52;2.60;;;1.60;;
36745;SDS011;22715;52.182;21.206;2023-05-07T08:26:17;3.00;;;1.42;;
36745;SDS011;22715;52.182;21.206;2023-05-07T08:28:43;1.58;;;1.23;;
36745;SDS011;22715;52.182;21.206;2023-05-07T08:31:08;1.00;;;0.88;;
36745;SDS011;22715;52.182;21.206;2023-05-07T08:33:35;4.97;;;2.03;;
36745;SDS011;22715;52.182;21.206;2023-05-07T08:36:02;2.65;;;1.17;;
36745;SDS011;22715;52.182;21.206;2023-05-07T08:38:27;1.98;;;1.27;;
36745;SDS011;22715;52.182;21.206;2023-05-07T08:40:59;1.88;;;1.25;;
36745;SDS011;22715;52.182;21.206;2023-05-07T08:43:26;3.83;;;1.92;;
36745;SDS011;22715;52.182;21.206;2023-05-07T08:45:53;7.00;;;2.65;;
36745;SDS011;22715;52.182;21.206;2023-05-07T08:48:19;2.92;;;1.67;;
36745;SDS011;22715;52.182;21.206;2023-05-07T08:50:46;2.85;;;1.50;;
36745;SDS011;22715;52.182;21.206;2023-05-07T08:53:11;4.60;;;1.23;;
36745;SDS011;22715;52.182;21.206;2023-05-07T08:55:38;1.88;;;1.30;;
36745;SDS011;22715;52.182;21.206;2023-05-07T08:58:05;2.70;;;1.92;;
36745;SDS011;22715;52.182;21.206;2023-05-07T09:00:30;1.42;;;1.33;;
36745;SDS011;22715;52.182;21.206;2023-05-07T09:02:57;1.73;;;1.15;;
36745;SDS011;22715;52.182;21.206;2023-05-07T09:05:22;1.40;;;1.20;;
36745;SDS011;22715;52.182;21.206;2023-05-07T09:07:48;3.00;;;2.00;;
36745;SDS011;22715;52.182;21.206;2023-05-07T09:10:15;2.00;;;1.40;;
36745;SDS011;22715;52.182;21.206;2023-05-07T09:12:40;2.35;;;1.52;;
36745;SDS011;22715;52.182;21.206;2023-05-07T09:15:09;1.75;;;1.20;;
36745;SDS011;22715;52.182;21.206;2023-05-07T09:17:50;1.83;;;1.58;;
36745;SDS011;22715;52.182;21.206;2023-05-07T09:20:18;2.03;;;1.38;;
36745;SDS011;22715;52.182;21.206;2023-05-07T09:22:44;2.30;;;1.05;;
36745;SDS011;22715;52.182;21.206;2023-05-07T09:25:13;3.72;;;1.27;;
36745;SDS011;22715;52.182;21.206;2023-05-07T09:27:53;2.08;;;1.08;;
36745;SDS011;22715;52.182;21.206;2023-05-07T09:30:21;4.55;;;1.13;;
36745;SDS011;22715;52.182;21.206;2023-05-07T09:32:46;3.40;;;1.23;;
36745;SDS011;22715;52.182;21.206;2023-05-07T09:35:15;1.63;;;1.13;;
36745;SDS011;22715;52.182;21.206;2023-05-07T09:37:46;1.55;;;0.85;;
36745;SDS011;22715;52.182;21.206;2023-05-07T09:40:27;3.65;;;1.40;;
36745;SDS011;22715;52.182;21.206;2023-05-07T09:42:53;3.30;;;1.25;;
36745;SDS011;22715;52.182;21.206;2023-05-07T09:45:24;1.77;;;1.20;;
36745;SDS011;22715;52.182;21.206;2023-05-07T09:47:50;1.88;;;1.20;;
36745;SDS011;22715;52.182;21.206;2023-05-07T09:50:18;1.70;;;1.13;;
36745;SDS011;22715;52.182;21.206;2023-05-07T09:52:45;1.55;;;1.25;;
36745;SDS011;22715;52.182;21.206;2023-05-07T09:55:11;1.98;;;1.20;;
36745;SDS011;22715;52.182;21.206;2023-05-07T10:00:29;2.25;;;1.90;;
36745;SDS011;22715;52.182;21.206;2023-05-07T10:02:55;2.95;;;1.52;;
36745;SDS011;22715;52.182;21.206;2023-05-07T10:05:22;4.50;;;2.42;;
36745;SDS011;22715;52.182;21.206;2023-05-07T10:07:48;1.35;;;1.25;;
36745;SDS011;22715;52.182;21.206;2023-05-07T10:15:54;1.52;;;1.08;;
36745;SDS011;22715;52.182;21.206;2023-05-07T10:18:24;2.00;;;1.73;;
36745;SDS011;22715;52.182;21.206;2023-05-07T10:20:55;2.63;;;0.98;;
36745;SDS011;22715;52.182;21.206;2023-05-07T10:26:25;1.40;;;1.20;;
36745;SDS011;22715;52.182;21.206;2023-05-07T10:29:12;1.80;;;1.33;;
36745;SDS011;22715;52.182;21.206;2023-05-07T10:31:54;2.20;;;1.52;;
36745;SDS011;22715;52.182;21.206;2023-05-07T10:37:09;1.17;;;1.08;;
36745;SDS011;22715;52.182;21.206;2023-05-07T10:39:35;1.23;;;1.10;;
36745;SDS011;22715;52.182;21.206;2023-05-07T10:42:08;1.30;;;1.20;;
36745;SDS011;22715;52.182;21.206;2023-05-07T10:44:35;3.35;;;1.10;;
36745;SDS011;22715;52.182;21.206;2023-05-07T10:49:31;2.88;;;1.52;;
36745;SDS011;22715;52.182;21.206;2023-05-07T10:52:10;5.70;;;2.13;;
36745;SDS011;22715;52.182;21.206;2023-05-07T10:54:38;3.15;;;1.77;;
36745;SDS011;22715;52.182;21.206;2023-05-07T10:59:47;2.35;;;0.85;;
36745;SDS011;22715;52.182;21.206;2023-05-07T11:02:14;2.33;;;1.15;;
36745;SDS011;22715;52.182;21.206;2023-05-07T11:04:57;4.38;;;2.25;;
36745;SDS011;22715;52.182;21.206;2023-05-07T11:07:31;1.20;;;0.98;;
36745;SDS011;22715;52.182;21.206;2023-05-07T11:10:07;1.42;;;1.10;;
36745;SDS011;22715;52.182;21.206;2023-05-07T11:15:12;4.23;;;1.00;;
36745;SDS011;22715;52.182;21.206;2023-05-07T11:17:54;2.75;;;1.08;;
36745;SDS011;22715;52.182;21.206;2023-05-07T11:20:19;1.50;;;1.02;;
36745;SDS011;22715;52.182;21.206;2023-05-07T11:22:48;2.20;;;0.95;;
36745;SDS011;22715;52.182;21.206;2023-05-07T11:25:17;2.38;;;1.98;;
36745;SDS011;22715;52.182;21.206;2023-05-07T11:27:42;2.53;;;1.30;;
36745;SDS011;22715;52.182;21.206;2023-05-07T11:30:08;1.42;;;0.77;;
36745;SDS011;22715;52.182;21.206;2023-05-07T11:32:34;2.17;;;0.90;;
36745;SDS011;22715;52.182;21.206;2023-05-07T11:35:00;2.05;;;1.08;;
36745;SDS011;22715;52.182;21.206;2023-05-07T11:37:26;1.77;;;1.10;;
36745;SDS011;22715;52.182;21.206;2023-05-07T11:40:02;1.45;;;1.00;;
36745;SDS011;22715;52.182;21.206;2023-05-07T11:42:32;1.45;;;0.98;;
36745;SDS011;22715;52.182;21.206;2023-05-07T11:47:29;1.30;;;0.90;;
36745;SDS011;22715;52.182;21.206;2023-05-07T11:49:55;2.25;;;1.05;;
36745;SDS011;22715;52.182;21.206;2023-05-07T11:52:23;2.42;;;1.52;;
36745;SDS011;22715;52.182;21.206;2023-05-07T11:54:52;1.45;;;1.33;;
36745;SDS011;22715;52.182;21.206;2023-05-07T11:57:18;1.83;;;1.02;;
36745;SDS011;22715;52.182;21.206;2023-05-07T11:59:46;2.97;;;1.45;;
36745;SDS011;22715;52.182;21.206;2023-05-07T12:02:17;4.10;;;1.08;;
36745;SDS011;22715;52.182;21.206;2023-05-07T12:04:42;2.00;;;1.23;;
36745;SDS011;22715;52.182;21.206;2023-05-07T12:07:14;3.10;;;1.55;;
36745;SDS011;22715;52.182;21.206;2023-05-07T12:09:42;1.23;;;0.77;;
36745;SDS011;22715;52.182;21.206;2023-05-07T12:12:13;1.27;;;1.10;;
36745;SDS011;22715;52.182;21.206;2023-05-07T12:14:40;1.55;;;1.33;;
36745;SDS011;22715;52.182;21.206;2023-05-07T12:17:13;4.60;;;1.58;;
36745;SDS011;22715;52.182;21.206;2023-05-07T12:19:39;2.08;;;1.00;;
36745;SDS011;22715;52.182;21.206;2023-05-07T12:22:09;1.48;;;1.00;;
36745;SDS011;22715;52.182;21.206;2023-05-07T12:24:48;3.92;;;1.52;;
36745;SDS011;22715;52.182;21.206;2023-05-07T12:27:16;2.55;;;1.23;;
36745;SDS011;22715;52.182;21.206;2023-05-07T12:29:49;1.40;;;1.00;;
36745;SDS011;22715;52.182;21.206;2023-05-07T12:32:15;2.60;;;1.27;;
36745;SDS011;22715;52.182;21.206;2023-05-07T12:34:41;1.58;;;1.00;;
36745;SDS011;22715;52.182;21.206;2023-05-07T12:37:06;2.80;;;1.30;;
36745;SDS011;22715;52.182;21.206;2023-05-07T12:39:32;1.77;;;1.10;;
36745;SDS011;22715;52.182;21.206;2023-05-07T12:41:58;2.63;;;1.63;;
36745;SDS011;22715;52.182;21.206;2023-05-07T12:44:33;2.15;;;1.30;;
36745;SDS011;22715;52.182;21.206;2023-05-07T12:47:02;3.08;;;1.38;;
36745;SDS011;22715;52.182;21.206;2023-05-07T12:49:49;2.85;;;1.73;;
36745;SDS011;22715;52.182;21.206;2023-05-07T12:52:13;3.42;;;1.50;;
36745;SDS011;22715;52.182;21.206;2023-05-07T12:54:40;2.00;;;1.35;;
36745;SDS011;22715;52.182;21.206;2023-05-07T12:57:06;2.47;;;1.58;;
36745;SDS011;22715;52.182;21.206;2023-05-07T12:59:34;2.80;;;1.70;;
36745;SDS011;22715;52.182;21.206;2023-05-07T13:01:59;3.20;;;1.45;;
36745;SDS011;22715;52.182;21.206;2023-05-07T13:04:28;1.02;;;0.80;;
36745;SDS011;22715;52.182;21.206;2023-05-07T13:06:54;1.52;;;1.10;;
36745;SDS011;22715;52.182;21.206;2023-05-07T13:09:19;2.85;;;1.73;;
36745;SDS011;22715;52.182;21.206;2023-05-07T13:11:45;1.67;;;0.90;;
36745;SDS011;22715;52.182;21.206;2023-05-07T13:14:11;0.60;;;0.60;;
36745;SDS011;22715;52.182;21.206;2023-05-07T13:16:37;2.45;;;0.95;;
36745;SDS011;22715;52.182;21.206;2023-05-07T13:19:05;1.75;;;0.90;;
36745;SDS011;22715;52.182;21.206;2023-05-07T14:01:28;1.38;;;0.98;;
36745;SDS011;22715;52.182;21.206;2023-05-07T14:03:55;1.52;;;0.98;;
36745;SDS011;22715;52.182;21.206;2023-05-07T14:06:20;1.65;;;1.25;;
36745;SDS011;22715;52.182;21.206;2023-05-07T14:08:47;1.25;;;0.93;;
36745;SDS011;22715;52.182;21.206;2023-05-07T14:11:13;2.95;;;0.85;;
36745;SDS011;22715;52.182;21.206;2023-05-07T14:13:38;4.47;;;1.35;;
36745;SDS011;22715;52.182;21.206;2023-05-07T14:16:03;2.25;;;1.38;;
36745;SDS011;22715;52.182;21.206;2023-05-07T14:18:32;1.95;;;0.93;;
36745;SDS011;22715;52.182;21.206;2023-05-07T14:20:59;1.83;;;1.00;;
36745;SDS011;22715;52.182;21.206;2023-05-07T14:23:24;1.38;;;1.17;;
36745;SDS011;22715;52.182;21.206;2023-05-07T14:26:09;0.80;;;0.80;;
36745;SDS011;22715;52.182;21.206;2023-05-07T14:28:34;1.67;;;1.00;;
36745;SDS011;22715;52.182;21.206;2023-05-07T14:31:03;3.20;;;1.50;;
36745;SDS011;22715;52.182;21.206;2023-05-07T14:33:31;3.83;;;1.38;;
36745;SDS011;22715;52.182;21.206;2023-05-07T14:35:57;1.27;;;0.80;;
36745;SDS011;22715;52.182;21.206;2023-05-07T14:38:23;1.85;;;1.10;;
36745;SDS011;22715;52.182;21.206;2023-05-07T14:40:48;0.85;;;0.57;;
36745;SDS011;22715;52.182;21.206;2023-05-07T14:43:18;1.70;;;1.02;;
36745;SDS011;22715;52.182;21.206;2023-05-07T14:45:47;3.50;;;1.13;;
36745;SDS011;22715;52.182;21.206;2023-05-07T14:48:12;1.45;;;0.85;;
36745;SDS011;22715;52.182;21.206;2023-05-07T14:50:40;0.82;;;0.80;;
36745;SDS011;22715;52.182;21.206;2023-05-07T14:53:05;4.47;;;0.82;;
36745;SDS011;22715;52.182;21.206;2023-05-07T14:55:31;1.10;;;0.90;;
36745;SDS011;22715;52.182;21.206;2023-05-07T14:57:56;1.20;;;0.90;;
36745;SDS011;22715;52.182;21.206;2023-05-07T15:00:21;1.52;;;1.13;;
36745;SDS011;22715;52.182;21.206;2023-05-07T15:02:47;1.60;;;1.05;;
36745;SDS011;22715;52.182;21.206;2023-05-07T15:05:12;1.60;;;0.68;;
36745;SDS011;22715;52.182;21.206;2023-05-07T15:07:39;1.15;;;0.73;;
36745;SDS011;22715;52.182;21.206;2023-05-07T15:10:07;0.70;;;0.70;;
36745;SDS011;22715;52.182;21.206;2023-05-07T15:12:32;1.80;;;1.08;;
36745;SDS011;22715;52.182;21.206;2023-05-07T15:15:01;2.38;;;1.42;;
36745;SDS011;22715;52.182;21.206;2023-05-07T15:17:26;3.67;;;1.30;;
36745;SDS011;22715;52.182;21.206;2023-05-07T15:19:51;3.33;;;1.33;;
36745;SDS011;22715;52.182;21.206;2023-05-07T15:22:17;3.75;;;1.58;;
36745;SDS011;22715;52.182;21.206;2023-05-07T15:24:42;1.65;;;0.80;;
36745;SDS011;22715;52.182;21.206;2023-05-07T15:27:10;1.88;;;1.17;;
36745;SDS011;22715;52.182;21.206;2023-05-07T15:29:38;2.97;;;1.33;;
36745;SDS011;22715;52.182;21.206;2023-05-07T15:32:11;0.73;;;0.55;;
36745;SDS011;22715;52.182;21.206;2023-05-07T15:34:37;1.30;;;0.90;;
36745;SDS011;22715;52.182;21.206;2023-05-07T15:37:08;1.50;;;0.90;;
36745;SDS011;22715;52.182;21.206;2023-05-07T15:39:33;2.22;;;1.65;;
36745;SDS011;22715;52.182;21.206;2023-05-07T15:41:59;3.63;;;1.40;;
36745;SDS011;22715;52.182;21.206;2023-05-07T15:44:24;2.42;;;1.13;;
36745;SDS011;22715;52.182;21.206;2023-05-07T15:49:20;1.57;;;1.13;;
36745;SDS011;22715;52.182;21.206;2023-05-07T15:51:47;4.93;;;1.30;;
36745;SDS011;22715;52.182;21.206;2023-05-07T15:57:09;9.85;;;2.35;;
36745;SDS011;22715;52.182;21.206;2023-05-07T15:59:35;4.30;;;1.77;;
36745;SDS011;22715;52.182;21.206;2023-05-07T16:02:08;4.20;;;1.98;;
36745;SDS011;22715;52.182;21.206;2023-05-07T16:04:34;2.03;;;1.30;;
36745;SDS011;22715;52.182;21.206;2023-05-07T16:06:59;2.40;;;1.98;;
36745;SDS011;22715;52.182;21.206;2023-05-07T16:09:25;4.55;;;1.20;;
36745;SDS011;22715;52.182;21.206;2023-05-07T16:11:51;1.45;;;1.35;;
36745;SDS011;22715;52.182;21.206;2023-05-07T16:14:16;2.35;;;2.08;;
36745;SDS011;22715;52.182;21.206;2023-05-07T16:16:43;2.03;;;1.30;;
36745;SDS011;22715;52.182;21.206;2023-05-07T16:19:08;2.75;;;1.35;;
36745;SDS011;22715;52.182;21.206;2023-05-07T16:21:34;1.48;;;1.20;;
36745;SDS011;22715;52.182;21.206;2023-05-07T16:24:00;8.05;;;2.00;;
36745;SDS011;22715;52.182;21.206;2023-05-07T16:26:25;4.00;;;1.77;;
36745;SDS011;22715;52.182;21.206;2023-05-07T16:28:51;2.00;;;1.25;;
36745;SDS011;22715;52.182;21.206;2023-05-07T16:31:16;3.45;;;2.30;;
36745;SDS011;22715;52.182;21.206;2023-05-07T16:33:44;2.88;;;1.58;;